Time;durP1;ratioP1;P1;durP2;ratioP2;P2;SDS_P1;SDS_P2;PMS_P1;PMS_P2;Temp;Humidity;BMP_temperature;BMP_pressure;BME280_temperature;BME280_humidity;BME280_pressure;Samples;Min_cycle;Max_cycle;Signal;HPM_P1;HPM_P2
2021/04/09 00:00:13;;;;;;;32.63;8.08;;;;;;;2.43;73.53;101184.02;4963873;57;1138648;-76
2021/04/09 00:05:41;;;;;;;25.03;6.47;;;;;;;2.38;73.51;101173.72;4950200;58;1136860;-76
2021/04/09 00:11:07;;;;;;;18.03;5.60;;;;;;;2.39;73.59;101178.05;4950222;57;1136557;-73
2021/04/09 00:16:32;;;;;;;14.93;5.47;;;;;;;2.37;73.59;101179.84;4950053;58;1136697;-73
2021/04/09 00:21:57;;;;;;;18.80;5.63;;;;;;;2.36;73.81;101182.05;4949680;58;1136454;-73
2021/04/09 00:27:23;;;;;;;14.00;4.60;;;;;;;2.35;73.84;101182.95;4950441;58;1136726;-73
2021/04/09 00:32:48;;;;;;;14.13;5.27;;;;;;;2.36;73.80;101182.50;4950636;57;1136618;-73
2021/04/09 00:38:14;;;;;;;13.43;4.37;;;;;;;2.35;73.82;101184.27;4951017;57;1136644;-73
2021/04/09 00:43:39;;;;;;;12.10;3.87;;;;;;;2.35;73.79;101175.58;4974710;57;1136406;-73
2021/04/09 00:49:06;;;;;;;8.30;3.53;;;;;;;2.36;73.86;101182.05;5052112;57;1136274;-74
2021/04/09 00:54:33;;;;;;;11.40;3.87;;;;;;;2.35;73.66;101170.36;5051692;57;1134497;-74
2021/04/09 00:59:59;;;;;;;6.50;2.67;;;;;;;2.34;73.66;101168.65;5051856;57;1136848;-74
2021/04/09 01:05:24;;;;;;;13.68;4.53;;;;;;;2.34;73.68;101176.03;5018257;57;1134452;-75
2021/04/09 01:10:50;;;;;;;13.37;4.93;;;;;;;2.31;73.59;101168.30;4992936;57;1136479;-75
2021/04/09 01:16:52;;;;;;;14.27;5.07;;;;;;;2.29;73.69;101167.48;4999941;57;1145427;-75
2021/04/09 01:22:19;;;;;;;12.40;3.70;;;;;;;2.27;73.57;101163.25;5032723;57;1136909;-76
2021/04/09 01:28:06;;;;;;;14.47;4.10;;;;;;;2.21;73.52;101164.29;5032190;57;1136557;-74
2021/04/09 01:33:39;;;;;;;12.80;4.87;;;;;;;2.17;73.57;101165.73;5032477;57;1136625;-74
2021/04/09 01:39:12;;;;;;;11.73;5.40;;;;;;;2.14;73.62;101157.55;5032917;56;1136689;-74
2021/04/09 01:44:42;;;;;;;14.93;5.00;;;;;;;2.11;73.55;101157.67;5032815;57;1136616;-74
2021/04/09 01:50:11;;;;;;;9.83;3.53;;;;;;;2.06;73.37;101148.69;5033173;57;1136677;-76
2021/04/09 01:55:40;;;;;;;12.03;4.63;;;;;;;2.06;73.32;101143.92;5033180;57;1134590;-76
2021/04/09 02:01:12;;;;;;;8.50;4.20;;;;;;;2.01;73.30;101136.23;5033005;57;1136625;-74
2021/04/09 02:06:40;;;;;;;11.17;4.10;;;;;;;1.99;73.34;101136.73;5032032;57;1134669;-73
2021/04/09 02:12:08;;;;;;;14.67;4.63;;;;;;;2.00;73.36;101129.30;5033130;57;1136546;-73
2021/04/09 02:17:33;;;;;;;13.93;3.77;;;;;;;1.99;73.27;101130.20;5028682;57;1136519;-75
2021/04/09 02:22:59;;;;;;;7.73;3.53;;;;;;;1.99;73.23;101122.83;4981272;57;1136931;-75
2021/04/09 02:28:26;;;;;;;9.20;4.27;;;;;;;1.98;73.04;101120.70;4982193;57;1134748;-75
2021/04/09 02:33:52;;;;;;;8.87;3.97;;;;;;;1.97;73.19;101104.65;4981852;57;1134538;-76
2021/04/09 02:39:23;;;;;;;8.58;3.17;;;;;;;2.00;72.72;101106.28;4981176;57;1134454;-75
2021/04/09 02:44:49;;;;;;;18.87;4.90;;;;;;;2.01;72.78;101089.72;4981569;57;1134420;-72
2021/04/09 02:50:29;;;;;;;14.20;5.17;;;;;;;2.01;72.78;101089.72;4981713;57;1136666;-76
2021/04/09 02:55:56;;;;;;;11.37;4.40;;;;;;;2.03;72.83;101079.64;4981530;57;1136949;-73
2021/04/09 03:01:28;;;;;;;13.62;4.95;;;;;;;2.03;72.60;101074.42;4981539;57;1136626;-74
2021/04/09 03:06:54;;;;;;;13.00;4.40;;;;;;;2.03;72.86;101069.20;4980939;57;1136550;-73
2021/04/09 03:12:22;;;;;;;16.70;6.28;;;;;;;2.00;72.69;101083.66;4978729;57;1136892;-75
2021/04/09 03:18:05;;;;;;;12.57;5.03;;;;;;;1.98;72.72;101074.20;4978342;57;1136505;-75
2021/04/09 03:23:30;;;;;;;9.73;4.50;;;;;;;1.96;72.78;101071.64;4979419;57;1136557;-73
2021/04/09 03:28:55;;;;;;;20.13;6.57;;;;;;;1.89;72.53;101067.97;4978929;57;1134368;-74
2021/04/09 03:34:21;;;;;;;18.77;4.95;;;;;;;1.76;72.68;101059.25;4973412;58;1136514;-73
2021/04/09 03:39:47;;;;;;;10.60;5.03;;;;;;;1.72;72.90;101056.33;4977614;58;1136356;-74
2021/04/09 03:45:12;;;;;;;12.00;5.03;;;;;;;1.67;73.10;101045.67;4944932;58;1137003;-74
2021/04/09 03:50:38;;;;;;;30.77;6.63;;;;;;;1.61;73.02;101048.46;4990004;57;1136487;-73
2021/04/09 03:56:03;;;;;;;17.97;6.70;;;;;;;1.53;73.13;101043.48;5071754;57;1136723;-75
2021/04/09 04:01:31;;;;;;;17.23;6.78;;;;;;;1.50;73.30;101040.14;4963553;59;1136480;-76
2021/04/09 04:06:56;;;;;;;13.68;6.28;;;;;;;1.52;73.42;101030.08;5069317;57;1136490;-76
2021/04/09 04:12:22;;;;;;;14.73;6.92;;;;;;;1.51;73.31;101029.67;4963368;58;1136614;-75
2021/04/09 04:17:47;;;;;;;11.73;6.37;;;;;;;1.48;73.35;101029.77;4965486;58;1136540;-76
2021/04/09 04:23:13;;;;;;;14.20;6.10;;;;;;;1.49;73.39;101030.62;5018034;57;1136685;-75
2021/04/09 04:28:39;;;;;;;18.80;7.00;;;;;;;1.49;73.35;101028.01;5020433;57;1136552;-74
2021/04/09 04:34:04;;;;;;;11.00;5.78;;;;;;;1.39;73.09;101027.43;5020367;57;1136829;-73
2021/04/09 04:39:30;;;;;;;14.68;7.37;;;;;;;1.34;73.32;101031.51;5020283;57;1136499;-76
2021/04/09 04:44:56;;;;;;;12.60;6.03;;;;;;;1.32;73.40;101029.84;5020226;57;1136495;-73
2021/04/09 04:50:21;;;;;;;9.20;5.12;;;;;;;1.29;73.61;101032.09;5019732;57;1136952;-75
2021/04/09 04:55:46;;;;;;;10.63;5.50;;;;;;;1.31;73.66;101025.53;4976620;56;1134191;-75
2021/04/09 05:01:12;;;;;;;17.63;7.47;;;;;;;1.29;73.74;101040.36;4981355;56;1136244;-72
2021/04/09 05:06:37;;;;;;;10.77;4.87;;;;;;;1.28;73.75;101028.23;5022682;57;1136805;-73
2021/04/09 05:12:03;;;;;;;12.83;5.23;;;;;;;1.32;73.88;101028.54;5008455;57;1136416;-74
2021/04/09 05:17:29;;;;;;;7.80;5.14;;;;;;;1.35;73.53;101030.61;4998181;57;1136801;-74
2021/04/09 05:22:54;;;;;;;11.75;6.42;;;;;;;1.39;73.48;101037.41;4863464;58;1134480;-75
2021/04/09 05:28:19;;;;;;;12.63;6.23;;;;;;;1.46;73.38;101035.47;4911521;58;1136537;-74
2021/04/09 05:33:45;;;;;;;14.43;5.73;;;;;;;1.57;73.47;101033.81;4946703;57;1136749;-73
2021/04/09 05:39:11;;;;;;;18.67;6.67;;;;;;;1.65;72.87;101024.86;5030971;57;1136651;-74
2021/04/09 05:44:36;;;;;;;12.97;6.13;;;;;;;1.74;72.46;101008.89;5063141;57;1136456;-74
2021/04/09 05:50:02;;;;;;;9.10;4.97;;;;;;;1.91;72.52;101014.00;5057195;57;1136595;-75
2021/04/09 05:55:28;;;;;;;17.36;8.26;;;;;;;2.05;72.51;101002.19;4990739;57;1134729;-75
2021/04/09 06:00:54;;;;;;;13.13;5.40;;;;;;;2.18;71.60;100996.53;4990411;57;1136474;-75
2021/04/09 06:06:20;;;;;;;12.63;5.90;;;;;;;2.35;72.14;100995.02;4989904;57;1142353;-75
2021/04/09 06:11:46;;;;;;;12.07;5.57;;;;;;;2.52;71.35;100984.42;4989722;57;1136812;-73
2021/04/09 06:17:11;;;;;;;12.47;5.67;;;;;;;2.69;68.99;100988.11;5053935;57;1136558;-77
2021/04/09 06:22:36;;;;;;;15.17;6.63;;;;;;;2.86;68.31;100971.80;4941084;58;1136458;-74
2021/04/09 06:28:02;;;;;;;16.53;6.60;;;;;;;3.03;68.53;100966.78;4908013;58;1136907;-74
2021/04/09 06:33:27;;;;;;;13.95;5.65;;;;;;;3.21;66.79;100957.81;4904899;58;1136932;-75
2021/04/09 06:38:53;;;;;;;17.90;7.60;;;;;;;3.33;66.84;100950.78;4913468;59;1136806;-74
2021/04/09 06:44:19;;;;;;;9.37;4.77;;;;;;;3.45;65.46;100939.35;4912959;58;1136582;-74
2021/04/09 06:49:45;;;;;;;8.43;4.37;;;;;;;3.61;62.48;100942.17;4914150;59;1134504;-74
2021/04/09 06:55:13;;;;;;;12.97;5.17;;;;;;;3.73;62.49;100932.95;4941962;58;1134439;-73
2021/04/09 07:00:39;;;;;;;23.00;6.60;;;;;;;3.88;62.86;100916.59;4945802;58;1136504;-72
2021/04/09 07:06:05;;;;;;;11.13;4.97;;;;;;;4.06;61.68;100922.80;4909764;58;1136814;-74
2021/04/09 07:11:31;;;;;;;10.50;4.55;;;;;;;4.26;61.06;100928.00;4835561;59;1136516;-73
2021/04/09 07:17:04;;;;;;;12.47;4.97;;;;;;;4.46;60.50;100912.67;4872516;59;1136337;-73
2021/04/09 07:22:31;;;;;;;11.85;5.10;;;;;;;4.60;60.10;100912.42;4894077;59;1136388;-74
2021/04/09 07:28:16;;;;;;;11.57;5.13;;;;;;;4.83;61.36;100900.87;4884505;59;1136542;-72
2021/04/09 07:33:46;;;;;;;6.97;4.20;;;;;;;5.00;57.75;100893.97;4888540;58;1136463;-72
2021/04/09 07:39:11;;;;;;;9.90;4.57;;;;;;;5.07;57.27;100896.66;4892047;57;1134507;-72
2021/04/09 07:44:38;;;;;;;16.80;6.27;;;;;;;5.21;57.14;100883.72;4887380;59;1134584;-73
2021/04/09 07:50:09;;;;;;;18.43;7.97;;;;;;;5.35;57.92;100864.70;4890046;59;1136758;-73
2021/04/09 07:55:37;;;;;;;10.08;3.60;;;;;;;5.55;56.01;100866.68;4886030;59;1136597;-72
2021/04/09 08:01:05;;;;;;;9.20;5.07;;;;;;;5.66;54.16;100856.93;4890522;59;1136536;-73
2021/04/09 08:06:37;;;;;;;12.70;3.67;;;;;;;5.65;55.63;100852.14;4890223;59;1134608;-73
2021/04/09 08:12:03;;;;;;;18.63;8.63;;;;;;;5.78;58.17;100844.97;4879060;59;1136606;-74
2021/04/09 08:17:28;;;;;;;17.07;7.78;;;;;;;5.98;54.97;100847.41;4879620;59;1136930;-73
2021/04/09 08:23:00;;;;;;;8.07;4.77;;;;;;;6.05;54.72;100834.80;4831916;59;1136737;-74
2021/04/09 08:28:26;;;;;;;7.00;3.65;;;;;;;6.18;52.66;100782.00;4806817;59;1134675;-73
2021/04/09 08:33:54;;;;;;;55.37;6.87;;;;;;;6.39;54.04;100817.59;4822581;59;1134688;-74
2021/04/09 08:39:21;;;;;;;11.05;6.03;;;;;;;6.67;53.74;100828.25;4797923;59;1136614;-76
2021/04/09 08:44:47;;;;;;;14.03;4.43;;;;;;;6.87;53.65;100812.67;4760765;59;1136767;-75
2021/04/09 08:50:15;;;;;;;11.60;6.23;;;;;;;6.98;51.55;100810.73;4834037;59;1136553;-74
2021/04/09 08:55:41;;;;;;;11.37;4.17;;;;;;;7.08;51.79;100795.25;4805619;60;1136570;-74
2021/04/09 09:01:15;;;;;;;23.63;6.20;;;;;;;7.15;49.45;100804.48;4984401;58;1136889;-74
2021/04/09 09:06:44;;;;;;;11.83;4.90;;;;;;;7.24;50.48;100802.15;4980983;58;1136760;-75
2021/04/09 09:12:13;;;;;;;10.77;5.33;;;;;;;7.39;50.51;100773.60;4990285;57;1137028;-72
2021/04/09 09:17:39;;;;;;;6.08;3.77;;;;;;;7.51;50.74;100775.11;4924270;58;1136618;-74
2021/04/09 09:23:09;;;;;;;7.73;4.80;;;;;;;7.73;50.63;100776.34;4975971;58;1134682;-72
2021/04/09 09:28:35;;;;;;;22.55;9.20;;;;;;;7.81;49.31;100757.43;4976111;58;1134814;-74
2021/04/09 09:34:27;;;;;;;12.33;6.90;;;;;;;7.93;49.13;100756.69;4978912;57;1136703;-73
2021/04/09 09:40:07;;;;;;;14.80;5.03;;;;;;;7.99;47.57;100760.23;5031865;57;1136771;-74
2021/04/09 09:45:36;;;;;;;35.63;10.30;;;;;;;7.97;49.27;100745.47;5038967;57;1136926;-73
2021/04/09 09:51:06;;;;;;;19.37;7.13;;;;;;;8.08;49.69;100723.27;4977295;57;1138560;-73
2021/04/09 09:56:31;;;;;;;13.03;5.62;;;;;;;8.25;48.78;100721.67;4975849;58;1136346;-73
2021/04/09 10:02:00;;;;;;;21.00;8.33;;;;;;;8.48;48.06;100712.80;4976553;58;1136425;-73
2021/04/09 10:07:27;;;;;;;12.47;5.22;;;;;;;8.60;47.50;100714.61;4977028;58;1140517;-75
2021/04/09 10:12:52;;;;;;;10.97;5.17;;;;;;;8.67;46.84;100711.95;4976478;58;1137279;-74
2021/04/09 10:18:19;;;;;;;13.43;5.23;;;;;;;8.71;45.88;100700.23;4971009;58;1136795;-74
2021/04/09 10:23:49;;;;;;;15.73;6.87;;;;;;;8.75;46.12;100700.41;4946157;58;1136805;-73
2021/04/09 10:29:29;;;;;;;14.43;6.87;;;;;;;8.85;47.74;100705.93;4837045;59;1136595;-74
2021/04/09 10:34:54;;;;;;;15.98;6.10;;;;;;;8.87;46.38;100692.13;4837979;59;1136763;-73
2021/04/09 10:40:20;;;;;;;15.30;6.23;;;;;;;8.92;46.55;100698.80;4837073;59;1136586;-75
2021/04/09 10:45:46;;;;;;;13.83;6.13;;;;;;;9.02;45.49;100684.02;4837584;59;1136578;-72
2021/04/09 10:51:12;;;;;;;18.20;7.30;;;;;;;9.17;47.89;100676.84;4751278;60;1136567;-74
2021/04/09 10:56:37;;;;;;;14.28;4.97;;;;;;;9.30;44.16;100679.03;4837187;59;1138571;-74
2021/04/09 11:02:05;;;;;;;13.07;5.97;;;;;;;9.28;43.89;100678.77;4837552;59;1138722;-74
2021/04/09 11:07:47;;;;;;;10.00;5.03;;;;;;;9.35;44.50;100701.97;4837544;59;1138859;-74
2021/04/09 11:13:12;;;;;;;13.93;5.63;;;;;;;9.32;44.12;100660.45;4885322;59;1138848;-74
2021/04/09 11:18:51;;;;;;;14.70;6.05;;;;;;;9.43;45.45;100656.09;4758531;59;1138898;-74
2021/04/09 11:24:26;;;;;;;11.20;5.80;;;;;;;9.56;44.07;100640.22;4825360;60;1138609;-74
2021/04/09 11:30:13;;;;;;;12.35;5.90;;;;;;;9.68;45.35;100635.38;4791129;60;1138708;-74
2021/04/09 11:35:39;;;;;;;12.30;4.53;;;;;;;9.68;43.38;100630.09;4991624;57;1138698;-74
2021/04/09 11:41:04;;;;;;;10.87;6.43;;;;;;;9.63;43.52;100628.25;5028534;58;1138656;-73
2021/04/09 11:46:38;;;;;;;9.83;5.87;;;;;;;9.78;42.91;100619.22;5048620;58;1138707;-74
2021/04/09 11:52:06;;;;;;;13.93;5.43;;;;;;;10.14;42.69;100608.23;5050251;57;1136568;-72
2021/04/09 11:57:34;;;;;;;11.50;5.10;;;;;;;10.41;40.98;100600.06;5048140;58;1141176;-73
2021/04/09 12:03:04;;;;;;;20.30;5.77;;;;;;;10.51;41.14;100613.81;5047849;58;1140512;-72
2021/04/09 12:08:30;;;;;;;14.13;4.78;;;;;;;10.64;41.87;100602.30;5047386;58;1141389;-74
2021/04/09 12:13:54;;;;;;;11.17;5.90;;;;;;;10.75;39.60;100587.28;4946198;59;1140402;-73
2021/04/09 12:19:20;;;;;;;18.40;7.33;;;;;;;10.66;41.37;100591.12;4946252;59;1140704;-75
2021/04/09 12:24:49;;;;;;;15.17;5.63;;;;;;;10.60;40.85;100577.88;4946011;59;1140485;-75
2021/04/09 12:30:16;;;;;;;12.33;4.87;;;;;;;10.49;42.25;100568.13;4758200;60;1140493;-74
2021/04/09 12:35:41;;;;;;;9.23;4.97;;;;;;;10.45;41.67;100577.73;4829487;59;1140669;-73
2021/04/09 12:41:07;;;;;;;12.17;6.40;;;;;;;10.47;42.56;100571.38;4837148;60;1138510;-73
2021/04/09 12:46:34;;;;;;;13.03;6.08;;;;;;;10.54;44.07;100562.50;4849293;59;1141112;-72
2021/04/09 12:52:00;;;;;;;7.90;5.23;;;;;;;10.63;41.39;100555.17;4892275;58;1141090;-73
2021/04/09 12:57:26;;;;;;;12.60;5.23;;;;;;;10.69;41.43;100558.67;4892332;58;1145679;-74
2021/04/09 13:02:50;;;;;;;11.20;5.03;;;;;;;10.81;42.33;100548.45;4907762;58;1141161;-73
2021/04/09 13:08:18;;;;;;;15.17;7.43;;;;;;;10.89;41.11;100541.23;4838539;59;1140767;-74
2021/04/09 13:13:43;;;;;;;9.90;5.60;;;;;;;10.91;40.79;100552.53;4828682;59;1140757;-73
2021/04/09 13:19:08;;;;;;;12.63;5.60;;;;;;;10.92;41.71;100547.12;4838006;59;1138607;-73
2021/04/09 13:24:34;;;;;;;13.20;5.43;;;;;;;10.93;41.50;100525.48;4855159;59;1140934;-73
2021/04/09 13:29:59;;;;;;;7.07;4.67;;;;;;;10.98;42.82;100520.67;4854770;59;1140959;-75
2021/04/09 13:35:24;;;;;;;10.50;5.37;;;;;;;10.99;42.46;100510.94;4843603;60;1138659;-74
2021/04/09 13:40:51;;;;;;;19.77;5.77;;;;;;;10.96;41.57;100516.46;4843897;59;1140821;-73
2021/04/09 13:46:16;;;;;;;15.80;5.27;;;;;;;10.92;41.70;100507.44;4843646;60;1140809;-72
2021/04/09 13:51:42;;;;;;;13.93;3.95;;;;;;;11.06;40.97;100523.54;4786660;59;1140770;-74
2021/04/09 13:57:08;;;;;;;12.87;5.47;;;;;;;11.10;41.19;100508.27;4786055;59;1140769;-73
2021/04/09 14:02:34;;;;;;;11.40;4.95;;;;;;;11.11;42.71;100499.36;4836676;59;1141296;-73
2021/04/09 14:08:00;;;;;;;10.40;5.87;;;;;;;11.17;41.78;100502.34;4833482;59;1140860;-74
2021/04/09 14:13:26;;;;;;;6.70;3.60;;;;;;;11.20;42.20;100506.07;4854604;60;1170272;-72
2021/04/09 14:18:52;;;;;;;7.50;4.37;;;;;;;11.08;40.72;100508.86;4849205;60;1139081;-73
2021/04/09 14:24:18;;;;;;;6.73;3.70;;;;;;;11.02;41.81;100506.69;4855662;60;1138829;-75
2021/04/09 14:29:43;;;;;;;6.80;4.40;;;;;;;11.00;42.02;100489.61;4822761;60;1138765;-73
2021/04/09 14:35:09;;;;;;;13.57;4.23;;;;;;;11.12;42.52;100500.56;4822825;60;1138593;-73
2021/04/09 14:40:34;;;;;;;9.83;5.60;;;;;;;11.13;42.49;100487.69;4763541;60;1140940;-75
2021/04/09 14:45:59;;;;;;;11.97;5.43;;;;;;;11.21;42.50;100491.88;4748591;61;1138913;-73
2021/04/09 14:51:25;;;;;;;8.43;4.00;;;;;;;11.31;41.36;100493.77;4764651;60;1141148;-75
2021/04/09 14:56:52;;;;;;;11.57;4.83;;;;;;;11.36;41.73;100486.30;4770639;60;1138809;-75
2021/04/09 15:02:18;;;;;;;8.87;4.90;;;;;;;11.42;41.95;100484.48;4748469;60;1141004;-73
2021/04/09 15:07:43;;;;;;;9.00;5.90;;;;;;;11.46;42.65;100477.47;4768234;59;1138841;-72
2021/04/09 15:13:08;;;;;;;28.83;10.57;;;;;;;11.49;42.86;100468.44;4823176;60;1138613;-75
2021/04/09 15:18:35;;;;;;;16.82;6.83;;;;;;;11.43;42.69;100461.02;4914163;58;1142953;-77
2021/04/09 15:23:59;;;;;;;6.20;4.07;;;;;;;11.36;43.70;100459.34;4916348;58;1140862;-81
2021/04/09 15:29:24;;;;;;;16.53;3.80;;;;;;;11.30;42.93;100457.20;4840342;57;1138943;-75
2021/04/09 15:34:49;;;;;;;13.60;4.63;;;;;;;11.25;42.26;100457.58;4695578;60;1141163;-74
2021/04/09 15:40:18;;;;;;;10.43;5.83;;;;;;;11.21;43.48;100457.45;4816747;58;1141453;-75
2021/04/09 15:45:42;;;;;;;11.68;3.50;;;;;;;11.21;43.98;100451.32;4799212;59;1140557;-74
2021/04/09 15:51:09;;;;;;;10.87;6.17;;;;;;;11.19;42.28;100461.19;4789741;60;1140825;-76
2021/04/09 15:56:35;;;;;;;9.28;4.55;;;;;;;11.18;43.53;100459.02;4782733;60;1140775;-77
2021/04/09 16:02:01;;;;;;;9.73;5.10;;;;;;;11.15;42.77;100460.59;4912173;59;1138554;-76
2021/04/09 16:07:27;;;;;;;10.13;6.53;;;;;;;11.12;43.15;100463.98;4899555;58;1138990;-73
2021/04/09 16:12:53;;;;;;;19.93;7.03;;;;;;;11.07;43.32;100459.54;4917945;57;1140987;-73
2021/04/09 16:18:19;;;;;;;9.87;5.53;;;;;;;11.07;43.44;100455.56;4889418;58;1141198;-76
2021/04/09 16:23:44;;;;;;;10.13;4.63;;;;;;;11.07;43.67;100455.56;4890029;58;1138969;-75
2021/04/09 16:29:11;;;;;;;16.13;6.07;;;;;;;11.06;43.56;100458.70;4816095;59;1140989;-76
2021/04/09 16:34:36;;;;;;;18.00;8.53;;;;;;;11.05;44.10;100464.95;4887014;59;1141034;-72
2021/04/09 16:40:02;;;;;;;11.30;6.47;;;;;;;11.03;43.78;100458.94;4956813;58;1140720;-75
2021/04/09 16:45:29;;;;;;;15.00;8.97;;;;;;;11.06;44.90;100452.08;4903885;58;1140972;-73
2021/04/09 16:50:54;;;;;;;6.77;4.40;;;;;;;11.04;44.11;100446.06;4957853;58;1140693;-76
2021/04/09 16:56:20;;;;;;;17.23;6.67;;;;;;;11.03;43.42;100447.51;4957280;58;1138626;-73
2021/04/09 17:01:45;;;;;;;16.03;7.80;;;;;;;11.01;44.38;100445.47;4947376;58;1140682;-73
2021/04/09 17:07:10;;;;;;;9.93;5.50;;;;;;;10.99;45.28;100444.30;4956285;58;1140851;-74
2021/04/09 17:12:35;;;;;;;12.83;6.50;;;;;;;10.94;44.71;100445.13;4958874;58;1138913;-73
2021/04/09 17:18:00;;;;;;;18.57;7.80;;;;;;;10.87;45.36;100444.77;4894549;58;1140926;-73
2021/04/09 17:23:26;;;;;;;17.17;7.27;;;;;;;10.82;45.11;100446.97;4917774;58;1140885;-75
2021/04/09 17:28:52;;;;;;;26.80;12.27;;;;;;;10.80;45.60;100444.08;4917205;58;1140562;-74
2021/04/09 17:34:17;;;;;;;10.43;5.20;;;;;;;10.75;45.10;100438.30;4955755;58;1143340;-73
2021/04/09 17:39:42;;;;;;;21.15;13.48;;;;;;;10.71;44.63;100435.05;4982984;58;1140899;-71
2021/04/09 17:45:09;;;;;;;13.53;7.33;;;;;;;10.67;45.45;100439.41;4848310;58;1143117;-75
2021/04/09 17:50:36;;;;;;;13.72;6.90;;;;;;;10.63;45.44;100437.95;4813787;60;1140941;-75
2021/04/09 17:56:03;;;;;;;74.40;37.20;;;;;;;10.58;45.80;100442.28;4979975;58;1140858;-73
2021/04/09 18:01:30;;;;;;;192.87;92.97;;;;;;;10.56;45.60;100445.52;4841251;60;1142894;-74
2021/04/09 18:06:56;;;;;;;118.83;60.20;;;;;;;10.49;45.97;100439.89;4905685;59;1145129;-72
2021/04/09 18:12:23;;;;;;;76.00;32.13;;;;;;;10.44;46.21;100448.65;4826056;60;1144915;-75
2021/04/09 18:17:49;;;;;;;103.53;38.65;;;;;;;10.38;46.32;100452.27;4795993;60;1142984;-75
2021/04/09 18:23:15;;;;;;;217.53;87.43;;;;;;;10.33;46.45;100456.58;4822365;60;1145006;-76
2021/04/09 18:28:40;;;;;;;139.47;60.37;;;;;;;10.29;46.91;100451.16;4833819;60;1145042;-77
2021/04/09 18:34:06;;;;;;;109.60;53.40;;;;;;;10.23;47.10;100458.75;4969576;57;1144862;-79
2021/04/09 18:39:32;;;;;;;88.80;41.73;;;;;;;10.15;47.26;100456.64;4992757;57;1144878;-77
2021/04/09 18:44:57;;;;;;;63.97;31.00;;;;;;;10.06;47.52;100454.72;4832859;58;1142809;-73
2021/04/09 18:50:23;;;;;;;47.33;24.70;;;;;;;10.03;47.69;100479.56;4776468;59;1142945;-80
2021/04/09 18:55:48;;;;;;;27.20;12.98;;;;;;;9.94;48.13;100464.39;4776227;60;1143335;-77
2021/04/09 19:01:14;;;;;;;27.60;11.67;;;;;;;9.87;48.03;100469.80;4701308;60;1140721;-80
2021/04/09 19:06:40;;;;;;;21.68;10.15;;;;;;;9.80;48.21;100469.40;4787435;59;1140841;-73
2021/04/09 19:12:06;;;;;;;29.63;12.30;;;;;;;9.74;48.42;100461.95;4885786;58;1141049;-76
2021/04/09 19:17:32;;;;;;;34.50;15.33;;;;;;;9.71;48.51;100466.14;4803311;59;1140782;-74
2021/04/09 19:22:59;;;;;;;45.60;19.37;;;;;;;9.66;48.63;100463.47;4730256;60;1141108;-74
2021/04/09 19:28:26;;;;;;;33.67;16.00;;;;;;;9.60;48.81;100462.15;4825533;59;1140942;-77
2021/04/09 19:33:51;;;;;;;35.52;13.08;;;;;;;9.55;48.83;100460.31;4847482;58;1141000;-80
2021/04/09 19:39:17;;;;;;;37.73;18.03;;;;;;;9.50;49.11;100456.69;4785662;59;1138776;-74
2021/04/09 19:44:42;;;;;;;26.33;12.23;;;;;;;9.45;49.21;100460.17;4846257;59;1139121;-79
2021/04/09 19:50:08;;;;;;;35.73;13.33;;;;;;;9.38;49.14;100457.60;4884036;58;1138669;-77
2021/04/09 19:55:34;;;;;;;52.70;17.80;;;;;;;9.31;49.33;100456.38;4903982;58;1138631;-79
2021/04/09 20:00:59;;;;;;;53.70;18.63;;;;;;;9.27;49.54;100463.30;4920149;58;1138630;-77
2021/04/09 20:06:25;;;;;;;57.00;15.83;;;;;;;9.21;49.99;100454.03;5001214;57;1138949;-78
2021/04/09 20:11:50;;;;;;;34.73;19.37;;;;;;;9.20;50.19;100462.05;4992063;57;1139010;-77
2021/04/09 20:17:16;;;;;;;38.50;18.67;;;;;;;9.23;50.44;100455.23;5028836;57;1139061;-72
2021/04/09 20:22:42;;;;;;;36.73;16.27;;;;;;;9.25;50.50;100455.98;5102892;56;1138798;-77
2021/04/09 20:28:07;;;;;;;36.57;17.47;;;;;;;9.21;50.56;100451.39;5108284;56;1138790;-74
2021/04/09 20:33:32;;;;;;;28.30;13.90;;;;;;;9.18;50.71;100458.20;5105833;56;1138829;-77
2021/04/09 20:38:58;;;;;;;28.87;14.17;;;;;;;9.07;50.61;100456.36;5029519;56;1138546;-75
2021/04/09 20:44:24;;;;;;;31.70;16.23;;;;;;;8.93;50.82;100452.55;5010451;58;1138651;-77
2021/04/09 20:49:50;;;;;;;29.42;13.96;;;;;;;8.85;51.07;100450.11;5010848;57;1138883;-78
2021/04/09 20:55:16;;;;;;;28.47;13.80;;;;;;;8.76;51.13;100456.86;5014211;58;1138703;-73
2021/04/09 21:00:41;;;;;;;29.45;13.98;;;;;;;8.48;51.37;100455.80;5011294;57;1138463;-74
2021/04/09 21:06:07;;;;;;;36.80;14.87;;;;;;;8.48;51.37;100455.80;5012796;57;1138605;-73
2021/04/09 21:11:33;;;;;;;32.83;15.27;;;;;;;8.36;51.72;100454.88;5012234;58;1139079;-75
2021/04/09 21:16:59;;;;;;;32.53;14.90;;;;;;;8.25;51.99;100453.44;4983850;57;1138945;-78
2021/04/09 21:22:26;;;;;;;34.83;15.57;;;;;;;8.15;52.21;100449.25;4951593;57;1138897;-74
2021/04/09 21:27:52;;;;;;;43.47;16.33;;;;;;;8.05;52.44;100454.31;4956077;58;1138724;-78
2021/04/09 21:33:18;;;;;;;34.80;15.87;;;;;;;7.97;52.65;100454.45;4942449;58;1138846;-75
2021/04/09 21:38:44;;;;;;;37.65;16.40;;;;;;;7.91;52.80;100443.03;4969309;57;1138636;-75
2021/04/09 21:44:10;;;;;;;37.13;18.07;;;;;;;7.86;52.93;100445.12;5040380;57;1138506;-77
2021/04/09 21:49:35;;;;;;;34.03;17.20;;;;;;;7.79;52.99;100439.45;5016162;57;1138499;-73
2021/04/09 21:55:02;;;;;;;36.30;16.77;;;;;;;7.67;53.56;100434.51;4909089;58;1138641;-72
2021/04/09 22:00:34;;;;;;;32.87;16.50;;;;;;;7.67;53.56;100434.51;4742330;60;1138856;-73
2021/04/09 22:05:59;;;;;;;31.93;16.17;;;;;;;7.65;53.27;100442.97;4863625;59;1138765;-73
2021/04/09 22:11:25;;;;;;;36.07;17.63;;;;;;;7.58;53.32;100444.34;4864521;59;1138942;-73
2021/04/09 22:16:51;;;;;;;39.73;17.17;;;;;;;7.55;53.44;100441.91;4857103;59;1138554;-75
2021/04/09 22:22:17;;;;;;;45.93;18.53;;;;;;;7.47;53.47;100444.22;4856817;59;1138654;-73
2021/04/09 22:28:14;;;;;;;42.27;17.10;;;;;;;7.41;53.64;100438.88;4857387;59;1138779;-73
2021/04/09 22:33:41;;;;;;;43.60;19.27;;;;;;;7.36;53.75;100433.53;4723640;61;1138588;-76
2021/04/09 22:39:06;;;;;;;45.40;20.50;;;;;;;7.32;53.92;100436.02;4735571;60;1138862;-74
2021/04/09 22:44:30;;;;;;;43.10;21.33;;;;;;;7.27;54.04;100430.20;4792819;60;1139080;-72
2021/04/09 22:49:56;;;;;;;49.15;22.48;;;;;;;7.26;54.10;100433.30;4792729;60;1138893;-74
2021/04/09 22:55:21;;;;;;;48.13;21.37;;;;;;;7.20;54.10;100431.06;4792766;60;1138632;-75
2021/04/09 23:00:46;;;;;;;37.30;18.80;;;;;;;7.17;54.17;100430.44;4792861;60;1138741;-75
2021/04/09 23:06:13;;;;;;;37.37;18.60;;;;;;;7.11;54.22;100436.08;4824506;58;1138730;-75
2021/04/09 23:11:38;;;;;;;41.67;18.57;;;;;;;7.00;54.38;100431.52;5063777;57;1147198;-76
2021/04/09 23:17:04;;;;;;;42.70;19.77;;;;;;;6.94;54.53;100429.27;5062883;57;1138599;-72
2021/04/09 23:22:29;;;;;;;38.40;18.90;;;;;;;6.96;54.80;100429.55;5063210;57;1138593;-73
2021/04/09 23:27:57;;;;;;;45.48;19.98;;;;;;;6.97;54.78;100431.24;5062836;57;1138638;-74
2021/04/09 23:33:22;;;;;;;55.90;22.43;;;;;;;6.95;54.90;100425.70;5063299;57;1139045;-75
2021/04/09 23:38:48;;;;;;;50.98;23.67;;;;;;;6.94;55.06;100429.27;5063600;57;1138716;-75
2021/04/09 23:44:13;;;;;;;56.33;24.00;;;;;;;6.97;55.20;100429.09;5024030;57;1138769;-73
2021/04/09 23:49:39;;;;;;;55.47;23.13;;;;;;;6.97;55.23;100427.77;5019809;57;1147754;-73
2021/04/09 23:55:07;;;;;;;41.00;19.80;;;;;;;6.98;55.38;100430.77;5019237;56;1138945;-76
